Time;durP1;ratioP1;P1;durP2;ratioP2;P2;SDS_P1;SDS_P2;PMS_P1;PMS_P2;Temp;Humidity;BMP_temperature;BMP_pressure;BME280_temperature;BME280_humidity;BME280_pressure;Samples;Min_cycle;Max_cycle;Signal;HPM_P1;HPM_P2
2022/01/24 00:01:25;;;;;;;2.78;1.10;;;;;;;;;;5003544;28;20047;-67
2022/01/24 00:03:56;;;;;;;3.67;1.40;;;;;;;;;;5003372;28;20040;-67
2022/01/24 00:06:23;;;;;;;3.47;1.30;;;;;;;;;;5003403;28;20049;-67
2022/01/24 00:08:49;;;;;;;3.33;1.10;;;;;;;;;;4998524;28;20100;-67
2022/01/24 00:11:19;;;;;;;2.92;1.23;;;;;;;;;;4967209;28;20037;-67
2022/01/24 00:14:24;;;;;;;3.40;1.40;;;;;;;;;;4983912;28;20148;-67
2022/01/24 00:27:01;;;;;;;3.15;1.20;;;;;;;;;;4983437;28;20057;-67
2022/01/24 00:29:27;;;;;;;3.22;1.25;;;;;;;;;;4983807;28;20096;-67
2022/01/24 00:31:54;;;;;;;2.97;1.10;;;;;;;;;;4984109;28;20126;-66
2022/01/24 00:34:23;;;;;;;3.42;1.27;;;;;;;;;;4984543;28;20114;-66
2022/01/24 00:36:49;;;;;;;2.45;1.00;;;;;;;;;;4984988;28;20046;-66
2022/01/24 00:39:16;;;;;;;2.47;1.02;;;;;;;;;;4984543;28;20049;-66
2022/01/24 00:44:42;;;;;;;3.50;1.23;;;;;;;;;;4985133;28;20774;-66
2022/01/24 00:47:44;;;;;;;2.80;1.00;;;;;;;;;;4968499;28;20439;-66
2022/01/24 00:53:11;;;;;;;2.45;0.93;;;;;;;;;;4984380;28;20680;-66
2022/01/24 00:55:25;;;;;;;2.60;1.10;;;;;;;;;;4984195;28;20042;-66
2022/01/24 00:57:51;;;;;;;3.55;1.10;;;;;;;;;;4984573;28;20049;-66
2022/01/24 01:00:17;;;;;;;2.55;0.98;;;;;;;;;;4984484;28;20132;-66
2022/01/24 01:02:43;;;;;;;2.55;1.27;;;;;;;;;;4984591;28;20727;-66
2022/01/24 01:08:02;;;;;;;2.65;1.10;;;;;;;;;;4984181;28;20049;-66
2022/01/24 01:18:44;;;;;;;;;;;;;;;;;;4984962;28;20128;-67
2022/01/24 01:21:11;;;;;;;2.47;0.90;;;;;;;;;;4984201;28;20434;-67
2022/01/24 01:23:44;;;;;;;2.83;1.20;;;;;;;;;;4968109;28;20701;-67
2022/01/24 01:26:19;;;;;;;2.17;0.90;;;;;;;;;;4984444;28;20742;-67
2022/01/24 01:28:49;;;;;;;3.67;1.20;;;;;;;;;;4968747;28;20307;-67
2022/01/24 01:37:24;;;;;;;2.03;0.90;;;;;;;;;;4983831;28;20087;-67
2022/01/24 01:58:01;;;;;;;2.53;1.08;;;;;;;;;;5007553;28;20556;-67
2022/01/24 02:00:27;;;;;;;1.88;0.85;;;;;;;;;;5006978;28;20137;-67
2022/01/24 02:02:53;;;;;;;3.08;1.20;;;;;;;;;;5007154;28;20077;-67
2022/01/24 02:05:21;;;;;;;2.42;0.90;;;;;;;;;;5006025;28;20080;-67
2022/01/24 02:07:51;;;;;;;2.42;1.02;;;;;;;;;;5007400;28;20084;-67
2022/01/24 02:10:18;;;;;;;2.88;1.00;;;;;;;;;;5005992;28;20053;-67
2022/01/24 02:12:45;;;;;;;3.60;1.05;;;;;;;;;;5007096;28;20073;-67
2022/01/24 02:15:14;;;;;;;2.65;0.98;;;;;;;;;;5006520;28;20057;-67
2022/01/24 02:20:42;;;;;;;;;;;;;;;;;;5007170;28;20764;-67
2022/01/24 02:23:37;;;;;;;2.47;1.00;;;;;;;;;;4990827;28;20386;-67
2022/01/24 02:26:06;;;;;;;4.15;1.40;;;;;;;;;;5006157;28;20552;-67
2022/01/24 02:28:46;;;;;;;3.22;1.10;;;;;;;;;;4990595;28;20096;-67
2022/01/24 02:33:57;;;;;;;2.53;1.02;;;;;;;;;;5006066;28;20049;-67
2022/01/24 02:36:24;;;;;;;2.42;1.02;;;;;;;;;;4990571;28;20037;-67
2022/01/24 02:39:33;;;;;;;2.53;1.00;;;;;;;;;;5007518;28;20130;-67
2022/01/24 02:50:09;;;;;;;;;;;;;;;;;;5006835;28;20045;-67
2022/01/24 02:52:35;;;;;;;3.10;1.30;;;;;;;;;;5006486;28;19921;-67
2022/01/24 02:55:01;;;;;;;3.72;1.20;;;;;;;;;;5005409;28;20621;-67
2022/01/24 02:57:27;;;;;;;2.65;1.05;;;;;;;;;;4989608;28;20064;-67
2022/01/24 02:59:53;;;;;;;3.47;1.23;;;;;;;;;;5005561;28;20041;-67
2022/01/24 03:02:19;;;;;;;3.05;1.25;;;;;;;;;;5005789;28;20128;-66
2022/01/24 03:04:45;;;;;;;3.17;1.10;;;;;;;;;;5004251;28;20046;-67
2022/01/24 03:07:11;;;;;;;2.83;1.02;;;;;;;;;;5005706;28;20093;-67
2022/01/24 03:09:37;;;;;;;3.17;1.10;;;;;;;;;;4989069;28;20067;-67
2022/01/24 03:12:11;;;;;;;2.97;1.25;;;;;;;;;;5005422;28;20037;-67
2022/01/24 03:14:37;;;;;;;4.20;1.10;;;;;;;;;;5005336;28;20062;-67
2022/01/24 03:17:04;;;;;;;3.35;1.20;;;;;;;;;;5005574;28;20634;-67
2022/01/24 03:19:31;;;;;;;2.75;1.00;;;;;;;;;;5005342;28;20690;-67
2022/01/24 03:21:57;;;;;;;3.38;1.40;;;;;;;;;;5005263;28;20045;-67
2022/01/24 03:24:23;;;;;;;3.55;1.30;;;;;;;;;;5004756;28;20175;-67
2022/01/24 03:26:49;;;;;;;4.00;1.40;;;;;;;;;;5005660;28;20061;-67
2022/01/24 03:29:15;;;;;;;3.35;1.23;;;;;;;;;;5005683;28;20759;-67
2022/01/24 03:31:42;;;;;;;4.78;1.55;;;;;;;;;;5005146;28;20030;-67
2022/01/24 03:34:08;;;;;;;3.65;1.35;;;;;;;;;;4988989;28;20183;-67
2022/01/24 03:36:34;;;;;;;3.00;1.20;;;;;;;;;;5005228;28;20112;-67
2022/01/24 03:39:01;;;;;;;3.92;1.45;;;;;;;;;;5004630;28;20079;-67
2022/01/24 03:41:27;;;;;;;2.95;1.20;;;;;;;;;;5005078;28;20053;-67
2022/01/24 03:43:53;;;;;;;4.03;1.40;;;;;;;;;;4989143;28;20414;-66
2022/01/24 03:48:50;;;;;;;2.65;1.00;;;;;;;;;;5005087;28;20564;-67
2022/01/24 03:51:17;;;;;;;3.13;1.10;;;;;;;;;;5003072;28;20046;-67
2022/01/24 03:53:43;;;;;;;4.22;1.40;;;;;;;;;;4960619;28;20050;-67
2022/01/24 03:56:09;;;;;;;3.17;1.30;;;;;;;;;;5000614;28;20048;-67
2022/01/24 03:58:36;;;;;;;4.10;1.90;;;;;;;;;;4985387;28;20038;-67
2022/01/24 04:01:03;;;;;;;4.38;1.70;;;;;;;;;;4985013;28;20049;-67
2022/01/24 04:03:29;;;;;;;3.20;1.45;;;;;;;;;;4968814;28;20188;-67
2022/01/24 04:05:55;;;;;;;2.92;1.23;;;;;;;;;;4984864;28;20057;-67
2022/01/24 04:08:22;;;;;;;3.22;1.40;;;;;;;;;;4969054;28;20057;-67
2022/01/24 04:10:52;;;;;;;3.28;1.30;;;;;;;;;;5002237;28;20081;-67
2022/01/24 04:13:29;;;;;;;3.22;1.30;;;;;;;;;;4985346;28;20063;-67
2022/01/24 04:18:49;;;;;;;4.38;1.80;;;;;;;;;;4985137;28;20591;-67
2022/01/24 04:24:08;;;;;;;3.30;1.45;;;;;;;;;;4984911;28;20050;-67
2022/01/24 04:26:35;;;;;;;3.38;1.40;;;;;;;;;;4968497;28;20038;-67
2022/01/24 04:29:02;;;;;;;3.58;1.42;;;;;;;;;;4984472;28;20045;-67
2022/01/24 04:31:28;;;;;;;3.90;1.55;;;;;;;;;;5001825;28;20029;-67
2022/01/24 04:33:54;;;;;;;4.75;1.85;;;;;;;;;;5003879;28;20053;-67
2022/01/24 04:36:21;;;;;;;4.95;1.90;;;;;;;;;;5003858;28;20213;-66
2022/01/24 04:38:47;;;;;;;4.13;1.60;;;;;;;;;;5000831;28;20060;-66
2022/01/24 04:41:26;;;;;;;3.90;1.60;;;;;;;;;;4967672;28;20181;-67
2022/01/24 04:44:06;;;;;;;3.67;1.67;;;;;;;;;;4984622;28;20065;-66
2022/01/24 04:54:44;;;;;;;4.80;1.83;;;;;;;;;;4984191;28;20045;-66
2022/01/24 04:57:13;;;;;;;3.90;1.65;;;;;;;;;;4984541;28;20716;-66
2022/01/24 04:59:40;;;;;;;4.20;1.70;;;;;;;;;;4984566;28;20414;-66
2022/01/24 05:02:06;;;;;;;4.15;1.70;;;;;;;;;;4967952;28;20591;-66
2022/01/24 05:04:33;;;;;;;3.65;1.80;;;;;;;;;;4984934;28;20048;-67
2022/01/24 05:06:59;;;;;;;4.70;1.75;;;;;;;;;;4987394;28;20085;-66
2022/01/24 05:09:27;;;;;;;4.28;1.70;;;;;;;;;;4988037;28;20152;-66
2022/01/24 05:12:24;;;;;;;4.60;2.10;;;;;;;;;;5004211;28;20115;-66
2022/01/24 05:25:39;;;;;;;4.20;1.85;;;;;;;;;;5003782;28;20606;-67
2022/01/24 05:28:05;;;;;;;3.97;1.80;;;;;;;;;;5004837;28;20670;-67
2022/01/24 05:30:31;;;;;;;4.50;1.90;;;;;;;;;;5008367;28;20196;-68
2022/01/24 05:32:58;;;;;;;4.28;1.85;;;;;;;;;;5007435;28;20563;-67
2022/01/24 05:35:24;;;;;;;4.93;2.15;;;;;;;;;;5006882;28;20129;-67
2022/01/24 05:37:50;;;;;;;4.38;1.95;;;;;;;;;;5007996;28;20048;-68
2022/01/24 05:40:16;;;;;;;4.35;2.08;;;;;;;;;;5004166;28;20049;-68
2022/01/24 05:42:42;;;;;;;4.90;1.88;;;;;;;;;;4979077;28;20042;-68
2022/01/24 05:45:08;;;;;;;4.65;2.05;;;;;;;;;;5007561;28;20041;-68
2022/01/24 05:47:34;;;;;;;4.90;2.03;;;;;;;;;;5007320;28;20038;-68
2022/01/24 05:50:01;;;;;;;5.00;2.00;;;;;;;;;;4991285;28;20164;-67
2022/01/24 05:52:27;;;;;;;4.53;2.08;;;;;;;;;;4981115;28;21101;-67
2022/01/24 05:54:53;;;;;;;5.53;2.47;;;;;;;;;;4984206;28;20128;-68
2022/01/24 05:57:19;;;;;;;4.32;1.90;;;;;;;;;;5007248;28;20037;-68
2022/01/24 05:59:45;;;;;;;4.93;2.30;;;;;;;;;;5007663;28;20718;-68
2022/01/24 06:02:10;;;;;;;4.75;2.10;;;;;;;;;;5006360;28;20053;-68
2022/01/24 06:04:36;;;;;;;4.80;1.98;;;;;;;;;;4978864;28;20117;-68
2022/01/24 06:07:03;;;;;;;5.35;2.17;;;;;;;;;;4989476;28;20747;-68
2022/01/24 06:09:29;;;;;;;4.35;1.95;;;;;;;;;;4996392;28;20100;-66
2022/01/24 06:11:55;;;;;;;4.80;2.20;;;;;;;;;;5007069;28;20046;-66
2022/01/24 06:14:21;;;;;;;5.00;2.58;;;;;;;;;;4990315;28;20061;-66
2022/01/24 06:16:47;;;;;;;4.53;1.95;;;;;;;;;;4990167;28;20050;-68
2022/01/24 06:19:13;;;;;;;4.68;1.92;;;;;;;;;;4990431;28;20044;-66
2022/01/24 06:21:40;;;;;;;4.53;1.95;;;;;;;;;;5006796;28;20037;-66
2022/01/24 06:24:06;;;;;;;4.40;2.03;;;;;;;;;;4985917;28;20128;-66
2022/01/24 06:26:32;;;;;;;4.50;2.00;;;;;;;;;;4998471;28;20120;-66
2022/01/24 06:28:58;;;;;;;4.63;2.20;;;;;;;;;;4990423;28;20048;-66
2022/01/24 06:31:24;;;;;;;5.28;2.28;;;;;;;;;;4986544;28;20037;-66
2022/01/24 06:33:51;;;;;;;5.10;2.00;;;;;;;;;;4987167;28;20064;-69
2022/01/24 06:36:18;;;;;;;4.93;2.17;;;;;;;;;;4986777;28;20129;-68
2022/01/24 06:38:44;;;;;;;5.32;2.28;;;;;;;;;;4961971;28;20919;-68
2022/01/24 06:41:10;;;;;;;5.03;2.00;;;;;;;;;;5004475;28;20041;-69
2022/01/24 06:43:36;;;;;;;4.75;2.30;;;;;;;;;;5006232;28;20069;-69
2022/01/24 06:46:02;;;;;;;7.47;2.00;;;;;;;;;;5003051;28;20742;-69
2022/01/24 06:48:28;;;;;;;6.32;2.47;;;;;;;;;;4986953;28;20380;-69
2022/01/24 06:50:54;;;;;;;5.45;2.10;;;;;;;;;;4980966;28;20073;-69
2022/01/24 06:53:20;;;;;;;4.80;2.03;;;;;;;;;;5006382;28;20041;-69
2022/01/24 06:55:46;;;;;;;5.88;2.10;;;;;;;;;;5005692;28;20041;-70
2022/01/24 06:58:12;;;;;;;6.68;2.33;;;;;;;;;;5005951;28;20167;-70
2022/01/24 07:00:38;;;;;;;6.88;2.30;;;;;;;;;;5005213;28;20049;-70
2022/01/24 07:03:04;;;;;;;16.13;8.13;;;;;;;;;;4989829;28;20073;-70
2022/01/24 07:05:31;;;;;;;12.40;8.48;;;;;;;;;;4989677;28;20132;-70
2022/01/24 07:07:59;;;;;;;14.90;7.93;;;;;;;;;;5005163;28;20518;-70
2022/01/24 07:10:25;;;;;;;12.18;8.43;;;;;;;;;;5005056;28;20693;-70
2022/01/24 07:12:51;;;;;;;13.70;8.60;;;;;;;;;;5006145;28;20037;-70
2022/01/24 07:15:20;;;;;;;13.43;9.48;;;;;;;;;;5005022;28;20050;-70
2022/01/24 07:20:35;;;;;;;11.52;8.30;;;;;;;;;;4973883;28;20089;-69
2022/01/24 07:23:05;;;;;;;13.10;9.02;;;;;;;;;;4997732;28;20120;-70
2022/01/24 07:25:31;;;;;;;12.63;7.90;;;;;;;;;;5004818;28;20076;-70
2022/01/24 07:27:58;;;;;;;10.10;6.57;;;;;;;;;;5004838;28;20030;-70
2022/01/24 07:30:24;;;;;;;11.93;7.25;;;;;;;;;;5004756;28;20042;-70
2022/01/24 07:32:50;;;;;;;12.73;6.60;;;;;;;;;;5004941;28;20098;-70
2022/01/24 07:35:16;;;;;;;11.27;5.93;;;;;;;;;;5004761;28;20047;-71
2022/01/24 07:37:42;;;;;;;9.80;6.38;;;;;;;;;;5005031;28;20405;-70
2022/01/24 07:40:09;;;;;;;10.20;5.10;;;;;;;;;;4961383;28;20103;-69
2022/01/24 07:45:21;;;;;;;9.43;5.25;;;;;;;;;;4992110;28;20049;-70
2022/01/24 07:47:47;;;;;;;7.70;4.72;;;;;;;;;;5004640;28;20045;-70
2022/01/24 07:50:15;;;;;;;8.15;4.55;;;;;;;;;;4988333;28;20095;-70
2022/01/24 07:52:41;;;;;;;11.07;4.97;;;;;;;;;;4988818;28;20049;-70
2022/01/24 07:55:07;;;;;;;9.65;4.82;;;;;;;;;;4995048;28;20034;-70
2022/01/24 07:57:33;;;;;;;12.32;4.65;;;;;;;;;;4984679;28;20100;-70
2022/01/24 07:59:59;;;;;;;6.75;4.00;;;;;;;;;;4985060;28;20454;-70
2022/01/24 08:02:25;;;;;;;8.02;3.92;;;;;;;;;;4984268;28;20050;-70
2022/01/24 08:04:51;;;;;;;8.43;3.65;;;;;;;;;;4984993;28;20046;-69
2022/01/24 08:07:17;;;;;;;8.50;4.10;;;;;;;;;;4985110;28;20053;-70
2022/01/24 08:09:43;;;;;;;7.78;4.28;;;;;;;;;;4984267;28;20065;-70
2022/01/24 08:12:09;;;;;;;12.93;4.10;;;;;;;;;;4985644;28;20041;-70
2022/01/24 08:14:35;;;;;;;7.32;4.20;;;;;;;;;;4968801;28;20103;-70
2022/01/24 08:17:03;;;;;;;9.13;4.30;;;;;;;;;;4985194;28;20094;-70
2022/01/24 08:19:29;;;;;;;8.07;3.78;;;;;;;;;;4985340;28;20052;-70
2022/01/24 08:21:56;;;;;;;8.40;4.18;;;;;;;;;;4985233;28;20526;-70
2022/01/24 08:24:23;;;;;;;9.07;3.85;;;;;;;;;;4984859;28;20054;-70
2022/01/24 08:26:49;;;;;;;9.75;3.67;;;;;;;;;;4984647;28;20164;-70
2022/01/24 08:29:15;;;;;;;7.68;4.10;;;;;;;;;;4984692;28;20071;-70
2022/01/24 08:31:41;;;;;;;7.05;3.60;;;;;;;;;;4998916;28;20049;-70
2022/01/24 08:34:07;;;;;;;8.98;4.05;;;;;;;;;;4985986;28;20084;-70
2022/01/24 08:36:34;;;;;;;8.65;3.92;;;;;;;;;;4985039;28;20041;-70
2022/01/24 08:39:06;;;;;;;7.40;3.38;;;;;;;;;;4968349;28;20033;-70
2022/01/24 08:41:43;;;;;;;7.50;3.67;;;;;;;;;;4985579;28;20545;-70
2022/01/24 08:46:38;;;;;;;8.30;3.55;;;;;;;;;;4984587;28;20124;-70
2022/01/24 08:49:04;;;;;;;8.48;3.88;;;;;;;;;;4984837;28;20053;-70
2022/01/24 08:51:30;;;;;;;7.15;3.45;;;;;;;;;;4968649;28;20042;-70
2022/01/24 08:53:56;;;;;;;8.73;4.00;;;;;;;;;;4984602;28;20038;-70
2022/01/24 08:56:23;;;;;;;6.90;3.67;;;;;;;;;;4984494;28;20041;-68
2022/01/24 08:58:50;;;;;;;7.22;3.70;;;;;;;;;;4968983;28;20045;-69
2022/01/24 09:01:16;;;;;;;5.97;3.50;;;;;;;;;;4967740;28;20042;-69
2022/01/24 09:03:41;;;;;;;6.72;3.40;;;;;;;;;;4970633;28;20049;-69
2022/01/24 09:06:09;;;;;;;8.40;3.75;;;;;;;;;;4988584;28;20034;-69
2022/01/24 09:08:35;;;;;;;6.65;3.50;;;;;;;;;;5004450;28;20103;-69
2022/01/24 09:11:02;;;;;;;6.88;3.20;;;;;;;;;;4991292;28;20053;-69
2022/01/24 09:13:30;;;;;;;6.55;3.53;;;;;;;;;;5007630;28;20075;-70
2022/01/24 09:15:56;;;;;;;7.20;3.40;;;;;;;;;;4960018;28;21339;-70
2022/01/24 09:18:22;;;;;;;6.35;3.33;;;;;;;;;;4954166;28;20129;-70
2022/01/24 09:20:50;;;;;;;8.13;3.80;;;;;;;;;;4984432;28;20106;-70
2022/01/24 09:23:16;;;;;;;5.90;2.97;;;;;;;;;;4985077;28;20488;-69
2022/01/24 09:25:42;;;;;;;6.60;3.70;;;;;;;;;;4983936;28;20046;-69
2022/01/24 09:28:08;;;;;;;6.63;3.00;;;;;;;;;;4984885;28;20053;-69
2022/01/24 09:30:34;;;;;;;6.25;3.20;;;;;;;;;;4980768;28;20618;-70
2022/01/24 09:33:00;;;;;;;6.10;3.10;;;;;;;;;;4984376;28;20776;-69
2022/01/24 09:35:28;;;;;;;6.95;3.83;;;;;;;;;;4984797;28;20038;-69
2022/01/24 09:37:54;;;;;;;5.82;3.05;;;;;;;;;;4984346;28;20038;-70
2022/01/24 09:40:22;;;;;;;6.65;3.50;;;;;;;;;;4984024;28;20049;-69
2022/01/24 09:42:48;;;;;;;6.55;3.50;;;;;;;;;;4968396;28;20050;-70
2022/01/24 09:45:16;;;;;;;6.13;3.20;;;;;;;;;;4968156;28;20567;-70
2022/01/24 09:47:42;;;;;;;7.97;3.67;;;;;;;;;;4984500;28;20049;-69
2022/01/24 09:50:10;;;;;;;6.88;3.42;;;;;;;;;;4984087;28;20493;-70
2022/01/24 09:52:39;;;;;;;7.57;3.67;;;;;;;;;;4983908;28;20042;-70
2022/01/24 09:55:05;;;;;;;6.63;3.40;;;;;;;;;;4967128;28;20035;-70
2022/01/24 09:57:31;;;;;;;6.82;3.42;;;;;;;;;;4983920;28;20077;-70
2022/01/24 09:59:57;;;;;;;6.80;3.67;;;;;;;;;;4989187;28;20046;-70
2022/01/24 10:02:27;;;;;;;6.55;3.55;;;;;;;;;;5004296;28;20114;-69
2022/01/24 10:05:10;;;;;;;7.63;3.72;;;;;;;;;;4987267;28;20538;-70
2022/01/24 10:07:39;;;;;;;7.33;3.87;;;;;;;;;;5003544;28;20091;-70
2022/01/24 10:10:05;;;;;;;7.28;4.05;;;;;;;;;;4976598;28;20058;-70
2022/01/24 10:17:47;;;;;;;9.00;5.15;;;;;;;;;;4990710;28;20057;-70
2022/01/24 10:20:16;;;;;;;8.20;4.85;;;;;;;;;;4999211;28;20050;-69
2022/01/24 10:22:42;;;;;;;9.13;4.90;;;;;;;;;;4983908;28;20046;-68
2022/01/24 10:25:11;;;;;;;11.07;4.90;;;;;;;;;;4978580;28;20507;-69
2022/01/24 10:27:41;;;;;;;10.13;5.18;;;;;;;;;;4999861;28;20435;-67
2022/01/24 10:30:10;;;;;;;10.18;6.20;;;;;;;;;;4985837;28;20523;-68
2022/01/24 10:32:48;;;;;;;12.05;6.25;;;;;;;;;;5002552;28;20714;-68
2022/01/24 10:35:23;;;;;;;15.82;7.35;;;;;;;;;;4988090;28;20069;-74
2022/01/24 10:37:52;;;;;;;14.48;8.25;;;;;;;;;;4989557;28;20123;-75
2022/01/24 10:40:31;;;;;;;19.20;9.43;;;;;;;;;;5005001;28;20450;-74
2022/01/24 10:43:17;;;;;;;18.33;9.25;;;;;;;;;;5005628;28;20111;-76
2022/01/24 10:45:44;;;;;;;19.25;9.68;;;;;;;;;;5006391;28;20402;-76
2022/01/24 10:48:10;;;;;;;16.00;9.18;;;;;;;;;;5006256;28;20080;-76
2022/01/24 10:50:36;;;;;;;18.17;9.73;;;;;;;;;;5004138;28;20092;-77
2022/01/24 10:53:15;;;;;;;26.48;9.85;;;;;;;;;;5004693;28;20046;-76
2022/01/24 10:55:42;;;;;;;30.63;11.23;;;;;;;;;;5005127;28;20117;-76
2022/01/24 10:58:18;;;;;;;18.10;9.75;;;;;;;;;;4989223;28;20543;-76
2022/01/24 11:00:45;;;;;;;22.00;11.00;;;;;;;;;;5005938;28;20045;-76
2022/01/24 11:03:15;;;;;;;26.52;13.13;;;;;;;;;;4989439;28;20056;-76
2022/01/24 11:05:43;;;;;;;36.08;13.02;;;;;;;;;;4989314;28;20060;-76
2022/01/24 11:08:11;;;;;;;21.85;12.32;;;;;;;;;;4989535;28;20049;-76
2022/01/24 11:10:42;;;;;;;27.33;14.05;;;;;;;;;;5005410;28;20376;-76
2022/01/24 11:13:08;;;;;;;28.33;14.48;;;;;;;;;;5006530;28;20391;-75
2022/01/24 11:15:35;;;;;;;23.90;13.40;;;;;;;;;;4989203;28;20611;-75
2022/01/24 11:18:02;;;;;;;23.75;14.15;;;;;;;;;;4990145;28;20046;-76
2022/01/24 11:20:31;;;;;;;22.38;13.27;;;;;;;;;;5005376;28;20045;-76
2022/01/24 11:23:00;;;;;;;22.35;14.60;;;;;;;;;;5005545;28;20045;-76
2022/01/24 11:25:27;;;;;;;21.45;14.68;;;;;;;;;;5005018;28;20073;-76
2022/01/24 11:27:53;;;;;;;23.67;14.52;;;;;;;;;;5005541;28;20050;-76
2022/01/24 11:30:19;;;;;;;22.02;13.57;;;;;;;;;;5005220;28;20052;-76
2022/01/24 11:32:54;;;;;;;21.17;13.90;;;;;;;;;;5005367;28;20177;-76
2022/01/24 11:35:34;;;;;;;24.33;14.77;;;;;;;;;;5005363;28;20038;-76
2022/01/24 11:38:00;;;;;;;24.85;14.98;;;;;;;;;;5005701;28;20130;-76
2022/01/24 11:40:27;;;;;;;25.90;15.90;;;;;;;;;;5005115;28;20046;-76
2022/01/24 11:42:53;;;;;;;23.02;14.60;;;;;;;;;;5005244;28;20042;-76
2022/01/24 11:45:45;;;;;;;23.55;15.65;;;;;;;;;;5005664;28;20558;-76
2022/01/24 11:48:15;;;;;;;23.92;15.60;;;;;;;;;;5001257;28;20061;-76
2022/01/24 11:50:41;;;;;;;27.30;15.80;;;;;;;;;;5002381;28;20088;-77
2022/01/24 11:53:21;;;;;;;26.98;16.95;;;;;;;;;;4989589;28;20340;-77
2022/01/24 11:55:47;;;;;;;22.77;15.63;;;;;;;;;;4989826;28;20125;-75
2022/01/24 11:58:21;;;;;;;26.70;15.82;;;;;;;;;;5006492;28;20117;-75
2022/01/24 12:00:47;;;;;;;22.95;15.45;;;;;;;;;;4989613;28;20045;-76
2022/01/24 12:03:20;;;;;;;24.65;16.00;;;;;;;;;;5007291;28;20639;-75
2022/01/24 12:05:48;;;;;;;22.48;14.88;;;;;;;;;;4980598;28;20372;-75
2022/01/24 12:08:27;;;;;;;23.83;14.95;;;;;;;;;;4989337;28;20050;-75
2022/01/24 12:10:57;;;;;;;21.50;15.55;;;;;;;;;;5005172;28;20125;-76
2022/01/24 12:13:29;;;;;;;26.58;16.30;;;;;;;;;;5005319;28;20038;-76
2022/01/24 12:16:03;;;;;;;25.20;16.05;;;;;;;;;;4989070;28;20485;-77
2022/01/24 12:18:29;;;;;;;26.38;16.60;;;;;;;;;;5002013;28;20123;-74
2022/01/24 12:21:12;;;;;;;22.63;15.15;;;;;;;;;;4986032;28;20361;-74
2022/01/24 12:23:42;;;;;;;25.08;15.80;;;;;;;;;;5002204;28;20046;-74
2022/01/24 12:26:14;;;;;;;23.30;15.48;;;;;;;;;;4985334;28;20046;-74
2022/01/24 12:28:44;;;;;;;24.73;15.73;;;;;;;;;;4965933;28;20048;-74
2022/01/24 12:31:16;;;;;;;24.30;16.10;;;;;;;;;;4976343;28;20041;-74
2022/01/24 12:33:44;;;;;;;26.10;16.33;;;;;;;;;;4996457;28;20091;-74
2022/01/24 12:36:14;;;;;;;26.00;16.77;;;;;;;;;;4969417;28;20165;-74
2022/01/24 12:38:48;;;;;;;22.75;15.60;;;;;;;;;;5001146;28;20538;-74
2022/01/24 12:41:16;;;;;;;23.10;15.80;;;;;;;;;;4985337;28;20045;-74
2022/01/24 12:46:27;;;;;;;24.23;16.35;;;;;;;;;;5001604;28;20079;-74
2022/01/24 12:48:55;;;;;;;24.42;15.93;;;;;;;;;;4997400;28;20037;-74
2022/01/24 12:51:22;;;;;;;23.98;16.02;;;;;;;;;;4998892;28;20643;-74
2022/01/24 12:53:49;;;;;;;23.83;17.15;;;;;;;;;;4995139;28;20139;-74
2022/01/24 12:56:16;;;;;;;21.73;15.70;;;;;;;;;;4970163;28;20074;-74
2022/01/24 12:58:44;;;;;;;22.23;15.98;;;;;;;;;;4987562;28;20076;-74
2022/01/24 13:01:41;;;;;;;22.67;15.23;;;;;;;;;;4985418;28;20057;-74
2022/01/24 13:04:11;;;;;;;20.45;14.98;;;;;;;;;;5001650;28;20068;-74
2022/01/24 13:06:38;;;;;;;25.17;16.75;;;;;;;;;;5002468;28;20081;-74
2022/01/24 13:09:11;;;;;;;21.33;15.27;;;;;;;;;;5001725;28;20064;-74
2022/01/24 13:11:47;;;;;;;22.38;15.70;;;;;;;;;;5001935;28;20042;-74
2022/01/24 13:14:19;;;;;;;22.52;15.70;;;;;;;;;;4985194;28;20125;-74
2022/01/24 13:22:22;;;;;;;20.67;15.25;;;;;;;;;;4984758;28;20038;-75
2022/01/24 13:25:01;;;;;;;23.10;14.63;;;;;;;;;;4991972;28;20180;-74
2022/01/24 13:27:33;;;;;;;20.75;14.85;;;;;;;;;;4988017;28;20129;-74
2022/01/24 13:29:59;;;;;;;21.20;15.65;;;;;;;;;;4982130;28;20181;-73
2022/01/24 13:32:48;;;;;;;22.02;15.98;;;;;;;;;;4998289;28;20132;-74
2022/01/24 13:35:14;;;;;;;21.08;15.05;;;;;;;;;;4984720;28;20038;-74
2022/01/24 13:37:40;;;;;;;23.60;15.63;;;;;;;;;;4966224;28;20065;-74
2022/01/24 13:40:06;;;;;;;21.63;15.20;;;;;;;;;;4965251;28;20153;-74
2022/01/24 13:42:36;;;;;;;22.80;15.60;;;;;;;;;;4977421;28;20094;-75
2022/01/24 13:45:03;;;;;;;24.58;15.52;;;;;;;;;;4989046;28;20116;-74
2022/01/24 13:47:29;;;;;;;24.65;18.05;;;;;;;;;;5002360;28;20041;-75
2022/01/24 13:49:55;;;;;;;25.10;17.63;;;;;;;;;;5003723;28;20115;-74
2022/01/24 13:52:24;;;;;;;23.85;17.80;;;;;;;;;;5005418;28;20117;-75
2022/01/24 13:54:50;;;;;;;24.67;17.80;;;;;;;;;;5004869;28;20140;-74
2022/01/24 13:57:17;;;;;;;24.15;17.15;;;;;;;;;;5005458;28;20038;-75
2022/01/24 13:59:43;;;;;;;23.33;16.15;;;;;;;;;;5005640;28;20680;-74
2022/01/24 14:02:14;;;;;;;25.95;17.13;;;;;;;;;;5005259;28;20165;-74
2022/01/24 14:04:52;;;;;;;21.95;15.70;;;;;;;;;;4978053;28;20058;-74
2022/01/24 14:07:26;;;;;;;30.90;17.75;;;;;;;;;;4967049;28;20046;-74
2022/01/24 14:09:57;;;;;;;24.35;17.27;;;;;;;;;;4961918;28;20165;-75
2022/01/24 14:12:27;;;;;;;27.58;17.75;;;;;;;;;;4958280;28;20211;-75
2022/01/24 14:15:05;;;;;;;30.33;17.80;;;;;;;;;;4967597;28;20070;-75
2022/01/24 14:20:08;;;;;;;26.30;17.23;;;;;;;;;;4983748;28;20132;-75
2022/01/24 14:22:43;;;;;;;23.30;16.15;;;;;;;;;;4984727;28;20053;-74
2022/01/24 14:25:27;;;;;;;29.98;17.75;;;;;;;;;;4961147;28;20046;-74
2022/01/24 14:27:54;;;;;;;27.15;17.52;;;;;;;;;;4981807;28;20042;-74
2022/01/24 14:30:21;;;;;;;27.17;16.25;;;;;;;;;;4981209;28;20038;-74
2022/01/24 14:33:09;;;;;;;27.83;16.52;;;;;;;;;;4962875;28;20046;-75
2022/01/24 14:35:38;;;;;;;22.83;15.02;;;;;;;;;;4968232;28;20651;-74
2022/01/24 14:38:04;;;;;;;22.70;15.07;;;;;;;;;;4944800;28;20653;-74
2022/01/24 14:40:46;;;;;;;24.88;14.77;;;;;;;;;;4941163;28;20116;-74
2022/01/24 14:45:59;;;;;;;23.90;15.35;;;;;;;;;;4984175;28;20046;-75
2022/01/24 14:48:25;;;;;;;21.92;16.58;;;;;;;;;;4981592;28;20046;-74
2022/01/24 14:50:51;;;;;;;25.00;16.98;;;;;;;;;;4983118;28;20388;-74
2022/01/24 14:53:17;;;;;;;23.88;16.20;;;;;;;;;;4982543;28;20046;-74
2022/01/24 14:55:43;;;;;;;21.83;14.35;;;;;;;;;;4976926;28;20500;-74
2022/01/24 14:58:09;;;;;;;21.90;15.95;;;;;;;;;;4966910;28;20118;-74
2022/01/24 15:00:35;;;;;;;21.55;15.27;;;;;;;;;;4980690;28;20161;-74
2022/01/24 15:03:01;;;;;;;22.75;15.82;;;;;;;;;;4961437;28;20065;-74
2022/01/24 15:05:27;;;;;;;21.92;15.48;;;;;;;;;;4982036;28;20034;-74
2022/01/24 15:07:53;;;;;;;21.52;15.23;;;;;;;;;;4982617;28;20034;-74
2022/01/24 15:10:19;;;;;;;21.85;15.77;;;;;;;;;;4979477;28;20065;-74
2022/01/24 15:12:51;;;;;;;21.08;15.05;;;;;;;;;;4982479;28;20042;-74
2022/01/24 15:15:20;;;;;;;24.65;16.80;;;;;;;;;;4983065;28;20050;-74
2022/01/24 15:26:04;;;;;;;22.70;15.52;;;;;;;;;;4913971;28;19918;-74
2022/01/24 15:28:31;;;;;;;23.15;15.25;;;;;;;;;;4982955;28;20085;-74
2022/01/24 15:30:57;;;;;;;24.63;17.25;;;;;;;;;;4966677;28;20042;-74
2022/01/24 15:33:23;;;;;;;23.38;16.33;;;;;;;;;;4983531;28;20645;-74
2022/01/24 15:35:50;;;;;;;20.98;15.50;;;;;;;;;;4983005;28;20046;-74
2022/01/24 15:38:16;;;;;;;22.33;15.60;;;;;;;;;;4982865;28;20042;-74
2022/01/24 15:40:42;;;;;;;24.17;16.55;;;;;;;;;;4982076;28;20073;-74
2022/01/24 15:45:43;;;;;;;22.45;16.38;;;;;;;;;;4982115;28;20048;-74
2022/01/24 15:48:10;;;;;;;23.48;15.95;;;;;;;;;;4966268;28;20125;-75
2022/01/24 15:50:37;;;;;;;21.83;15.82;;;;;;;;;;4981718;28;20117;-73
2022/01/24 15:53:04;;;;;;;22.40;15.80;;;;;;;;;;4982401;28;20036;-73
2022/01/24 15:55:32;;;;;;;21.35;15.18;;;;;;;;;;4981710;28;20039;-73
2022/01/24 15:57:59;;;;;;;21.35;14.98;;;;;;;;;;4966030;28;20038;-73
2022/01/24 16:00:27;;;;;;;23.30;16.00;;;;;;;;;;4981961;28;20046;-74
2022/01/24 16:02:55;;;;;;;21.73;15.98;;;;;;;;;;4965600;28;20042;-74
2022/01/24 16:05:22;;;;;;;20.17;14.48;;;;;;;;;;4959908;28;20080;-74
2022/01/24 16:07:49;;;;;;;19.42;13.27;;;;;;;;;;4957714;28;20050;-74
2022/01/24 16:10:16;;;;;;;20.65;14.57;;;;;;;;;;4963203;28;20484;-74
2022/01/24 16:12:44;;;;;;;20.00;14.00;;;;;;;;;;4964615;28;20184;-74
2022/01/24 16:15:12;;;;;;;19.02;13.65;;;;;;;;;;4981190;28;20495;-75
2022/01/24 16:17:38;;;;;;;18.52;13.90;;;;;;;;;;4981024;28;20436;-75
2022/01/24 16:20:19;;;;;;;19.88;13.60;;;;;;;;;;4964433;28;20105;-74
2022/01/24 16:27:55;;;;;;;;;;;;;;;;;;4982078;28;20038;-74
2022/01/24 16:30:21;;;;;;;19.98;13.23;;;;;;;;;;4963628;28;19979;-74
2022/01/24 16:32:47;;;;;;;21.55;14.60;;;;;;;;;;4981355;28;20113;-74
2022/01/24 16:35:13;;;;;;;19.80;13.52;;;;;;;;;;4981014;28;20038;-74
2022/01/24 16:37:39;;;;;;;19.95;14.20;;;;;;;;;;4965911;28;20046;-74
2022/01/24 16:40:10;;;;;;;19.98;14.10;;;;;;;;;;4981355;28;20072;-73
2022/01/24 16:42:52;;;;;;;17.77;13.23;;;;;;;;;;4981735;28;20051;-73
2022/01/24 16:48:02;;;;;;;;;;;;;;;;;;4982217;28;20046;-75
2022/01/24 16:50:28;;;;;;;18.83;13.60;;;;;;;;;;4977406;28;20603;-75
2022/01/24 16:52:54;;;;;;;20.02;13.70;;;;;;;;;;4962453;28;20038;-75
2022/01/24 16:55:22;;;;;;;18.00;12.82;;;;;;;;;;4961612;28;20065;-75
2022/01/24 16:57:48;;;;;;;18.75;12.95;;;;;;;;;;4961900;28;20047;-75
2022/01/24 17:00:14;;;;;;;16.92;12.65;;;;;;;;;;4961346;28;20054;-76